Time;durP1;ratioP1;P1;durP2;ratioP2;P2;SDS_P1;SDS_P2;PMS_P1;PMS_P2;Temp;Humidity;BMP_temperature;BMP_pressure;BME280_temperature;BME280_humidity;BME280_pressure;Samples;Min_cycle;Max_cycle;Signal;HPM_P1;HPM_P2
2023/03/11 00:01:00;;;;;;;3.13;1.13;;;3.30;99.90;;;2.94;100.00;99999.44;5148975;28;20049;-81
2023/03/11 00:03:32;;;;;;;7.93;1.20;;;3.40;99.90;;;2.96;100.00;99998.69;5137746;28;20065;-79
2023/03/11 00:06:06;;;;;;;3.03;1.25;;;3.40;99.90;;;2.98;100.00;100003.91;5147587;28;20114;-82
2023/03/11 00:08:38;;;;;;;6.97;1.13;;;3.40;99.90;;;3.03;100.00;100014.47;5139084;28;20151;-82
2023/03/11 00:11:12;;;;;;;4.30;1.17;;;3.40;99.90;;;2.99;100.00;100011.72;5136110;28;20105;-82
2023/03/11 00:13:44;;;;;;;6.80;1.63;;;3.40;99.90;;;2.98;100.00;100007.38;5146756;28;20053;-82
2023/03/11 00:16:16;;;;;;;3.88;1.17;;;3.40;99.90;;;3.02;100.00;100012.69;5147724;28;20054;-82
2023/03/11 00:18:51;;;;;;;6.57;1.17;;;3.40;99.90;;;3.02;100.00;100013.59;5145423;28;20054;-81
2023/03/11 00:21:23;;;;;;;7.82;1.30;;;3.50;99.90;;;3.01;100.00;100009.25;5139495;28;20105;-82
2023/03/11 00:23:57;;;;;;;4.68;1.10;;;3.50;99.90;;;2.99;100.00;100018.56;5133230;28;20047;-81
2023/03/11 00:26:30;;;;;;;6.63;1.02;;;3.40;99.90;;;3.01;100.00;100016.97;5157012;28;20496;-82
2023/03/11 00:29:02;;;;;;;2.10;0.90;;;3.40;99.90;;;3.06;100.00;100020.66;5167413;28;20093;-80
2023/03/11 00:31:34;;;;;;;4.43;0.93;;;3.50;99.90;;;3.08;100.00;100029.34;5136461;28;20050;-82
2023/03/11 00:34:07;;;;;;;6.07;1.20;;;3.50;99.90;;;3.11;100.00;100031.19;5139019;28;20058;-83
2023/03/11 00:36:39;;;;;;;6.07;1.35;;;3.50;99.90;;;3.08;100.00;100031.03;5139376;28;20049;-83
2023/03/11 00:39:11;;;;;;;4.72;1.15;;;3.50;99.90;;;3.09;100.00;100046.56;5140399;28;20057;-82
2023/03/11 00:41:44;;;;;;;6.80;1.20;;;3.50;99.90;;;3.10;100.00;100042.31;5145513;28;20047;-82
2023/03/11 00:44:18;;;;;;;4.53;1.40;;;3.50;99.90;;;3.05;100.00;100049.78;5158994;28;20093;-80
2023/03/11 00:46:50;;;;;;;8.95;1.67;;;3.50;99.90;;;3.06;100.00;100055.81;5150850;28;20509;-81
2023/03/11 00:49:22;;;;;;;4.53;1.13;;;3.50;99.90;;;3.06;100.00;100050.66;5140135;28;20464;-81
2023/03/11 00:51:55;;;;;;;7.20;1.45;;;3.50;99.90;;;3.02;100.00;100044.47;5162516;28;20509;-81
2023/03/11 00:54:28;;;;;;;4.97;1.30;;;3.50;99.90;;;2.96;100.00;100050.19;5147192;28;20501;-81
2023/03/11 00:57:01;;;;;;;2.08;1.08;;;3.50;99.90;;;2.97;100.00;100059.69;5150161;28;20043;-82
2023/03/11 00:59:34;;;;;;;5.40;1.25;;;3.40;99.90;;;2.94;100.00;100061.22;5145352;28;20042;-81
2023/03/11 01:02:07;;;;;;;2.95;1.10;;;3.40;99.90;;;2.93;100.00;100069.72;5150029;28;20094;-82
2023/03/11 01:04:39;;;;;;;5.00;1.30;;;3.40;99.90;;;2.89;100.00;100068.69;5142283;28;20133;-81
2023/03/11 01:07:12;;;;;;;5.97;1.55;;;3.40;99.90;;;2.90;100.00;100064.44;5150947;28;20062;-82
2023/03/11 01:09:44;;;;;;;3.13;1.27;;;3.40;99.90;;;2.92;100.00;100076.56;5160893;28;20047;-81
2023/03/11 01:12:17;;;;;;;3.97;1.10;;;3.40;99.90;;;2.96;100.00;100080.19;5148999;28;20065;-83
2023/03/11 01:14:49;;;;;;;3.33;1.20;;;3.40;99.90;;;2.93;100.00;100075.78;5143180;28;20050;-82
2023/03/11 01:17:22;;;;;;;4.13;1.40;;;3.40;99.90;;;2.98;100.00;100082.03;5136937;28;20046;-80
2023/03/11 01:19:54;;;;;;;4.57;1.10;;;3.40;99.90;;;2.99;100.00;100088.06;5154561;28;20042;-81
2023/03/11 01:22:27;;;;;;;3.58;1.27;;;3.40;99.90;;;3.01;100.00;100085.59;5143466;28;20524;-81
2023/03/11 01:25:00;;;;;;;5.32;0.95;;;3.40;99.90;;;2.97;100.00;100087.13;5140378;28;20043;-82
2023/03/11 01:27:33;;;;;;;5.68;2.15;;;3.40;99.90;;;2.96;100.00;100087.91;5133935;28;20051;-80
2023/03/11 01:30:08;;;;;;;3.53;1.10;;;3.40;99.90;;;2.95;100.00;100089.63;5156798;28;20103;-80
2023/03/11 01:32:41;;;;;;;6.07;1.23;;;3.40;99.90;;;2.94;100.00;100098.16;5147966;28;20455;-81
2023/03/11 01:35:15;;;;;;;3.17;1.08;;;3.40;99.90;;;2.96;100.00;100106.81;5132621;28;20572;-82
2023/03/11 01:37:47;;;;;;;5.50;1.45;;;3.40;99.90;;;2.97;100.00;100103.44;5135900;28;20050;-82
2023/03/11 01:40:24;;;;;;;6.00;0.95;;;3.40;99.90;;;2.95;100.00;100099.91;5152267;28;20062;-81
2023/03/11 01:42:59;;;;;;;3.40;0.88;;;3.40;99.90;;;2.99;100.00;100111.25;5140813;28;20046;-81
2023/03/11 01:46:09;;;;;;;6.38;1.20;;;3.40;99.90;;;3.04;100.00;100104.66;5132045;28;20054;-81
2023/03/11 01:48:47;;;;;;;3.83;1.00;;;3.40;99.90;;;3.08;100.00;100101.47;5140337;28;20419;-81
2023/03/11 01:51:26;;;;;;;2.05;0.90;;;3.50;99.90;;;3.12;100.00;100108.53;5150071;28;20121;-80
2023/03/11 01:54:02;;;;;;;3.78;1.20;;;3.50;99.90;;;3.16;100.00;100104.44;5147567;28;20054;-81
2023/03/11 01:56:35;;;;;;;3.58;0.90;;;3.50;99.90;;;3.21;100.00;100103.00;5145665;28;20042;-81
2023/03/11 01:59:12;;;;;;;1.88;0.77;;;3.60;99.90;;;3.22;100.00;100109.91;5152431;28;20137;-83
2023/03/11 02:01:53;;;;;;;2.75;0.95;;;3.60;99.90;;;3.21;100.00;100103.88;5140776;28;20074;-81
2023/03/11 02:04:27;;;;;;;5.55;1.35;;;3.60;99.90;;;3.21;100.00;100103.88;5139605;28;20560;-81
2023/03/11 02:06:59;;;;;;;5.88;1.23;;;3.60;99.90;;;3.20;100.00;100109.84;5144960;28;20539;-82
2023/03/11 02:09:31;;;;;;;3.22;0.82;;;3.60;99.90;;;3.16;100.00;100104.44;5148452;28;20125;-81
2023/03/11 02:12:06;;;;;;;4.43;1.35;;;3.50;99.90;;;3.12;100.00;100107.63;5151960;28;20053;-81
2023/03/11 02:14:43;;;;;;;2.08;0.82;;;3.50;99.90;;;3.06;100.00;100110.75;5133772;28;20050;-81
2023/03/11 02:17:16;;;;;;;3.88;1.00;;;3.50;99.90;;;3.03;100.00;100112.31;5140159;28;20055;-82
2023/03/11 02:20:09;;;;;;;5.43;1.20;;;3.50;99.90;;;3.09;100.00;100117.78;5139355;28;20046;-81
2023/03/11 02:22:43;;;;;;;3.25;1.08;;;3.50;99.90;;;3.10;100.00;100124.72;5131175;28;20564;-81
2023/03/11 02:25:25;;;;;;;3.08;1.02;;;3.50;99.90;;;3.12;100.00;100117.94;5131889;28;20047;-81
2023/03/11 02:28:01;;;;;;;7.40;1.13;;;3.50;99.90;;;3.13;100.00;100117.13;5139979;28;20739;-81
2023/03/11 02:30:35;;;;;;;4.57;1.25;;;3.50;99.90;;;3.13;100.00;100115.47;5139660;28;20092;-82
2023/03/11 02:33:09;;;;;;;5.68;1.02;;;3.50;99.90;;;3.09;100.00;100123.81;5131630;28;20509;-80
2023/03/11 02:35:41;;;;;;;4.82;0.93;;;3.40;99.90;;;3.07;100.00;100124.56;5130898;28;20043;-81
2023/03/11 02:38:15;;;;;;;4.47;1.70;;;3.50;99.90;;;3.04;100.00;100124.38;5138693;28;20047;-81
2023/03/11 02:40:54;;;;;;;4.68;0.98;;;3.40;99.90;;;2.97;100.00;100126.63;5140739;28;20055;-82
2023/03/11 02:43:37;;;;;;;1.88;0.93;;;3.40;99.90;;;2.96;100.00;100129.13;5140220;28;20043;-81
2023/03/11 02:46:11;;;;;;;4.45;1.08;;;3.40;99.90;;;2.96;100.00;100142.88;5131582;28;20067;-81
2023/03/11 02:48:44;;;;;;;10.35;0.98;;;3.30;99.90;;;2.98;100.00;100141.25;5147697;28;20141;-80
2023/03/11 02:51:17;;;;;;;3.40;1.30;;;3.30;99.90;;;2.92;100.00;100140.03;5130727;28;20062;-80
2023/03/11 02:53:54;;;;;;;4.97;1.23;;;3.30;99.90;;;2.90;100.00;100141.66;5138547;28;20058;-81
2023/03/11 02:56:27;;;;;;;2.13;0.70;;;3.30;99.90;;;2.87;100.00;100151.75;5130999;28;20051;-81
2023/03/11 02:59:00;;;;;;;5.10;1.05;;;3.30;99.90;;;2.83;100.00;100142.13;5156051;28;20385;-80
2023/03/11 03:01:34;;;;;;;2.35;0.93;;;3.20;99.90;;;2.81;100.00;100159.19;5142587;28;20046;-80
2023/03/11 03:04:06;;;;;;;3.97;1.00;;;3.20;99.90;;;2.78;100.00;100157.31;5131021;28;20043;-81
2023/03/11 03:06:39;;;;;;;5.20;1.35;;;3.20;99.90;;;2.73;100.00;100144.16;5130036;28;20046;-81
2023/03/11 03:09:11;;;;;;;6.38;0.95;;;3.10;99.90;;;2.70;100.00;100151.72;5137537;28;20055;-80
2023/03/11 03:11:43;;;;;;;4.22;1.00;;;3.10;99.90;;;2.71;100.00;100150.03;5139268;28;20080;-81
2023/03/11 03:14:17;;;;;;;3.80;1.17;;;3.10;99.90;;;2.71;100.00;100150.03;5138522;28;20555;-80
2023/03/11 03:16:49;;;;;;;6.25;1.15;;;3.10;99.90;;;2.67;100.00;100148.09;5156213;28;20045;-81
2023/03/11 03:19:23;;;;;;;3.60;1.20;;;3.10;99.90;;;2.65;100.00;100150.59;5145890;28;20046;-81
2023/03/11 03:21:56;;;;;;;3.55;1.20;;;3.10;99.90;;;2.64;100.00;100141.09;5139445;28;20421;-81
2023/03/11 03:24:29;;;;;;;4.82;1.20;;;3.00;99.90;;;2.66;100.00;100154.03;5143705;28;20504;-82
2023/03/11 03:27:01;;;;;;;8.20;1.13;;;3.00;99.90;;;2.64;100.00;100159.09;5141555;28;20089;-83
2023/03/11 03:29:35;;;;;;;5.80;1.08;;;3.00;99.90;;;2.60;100.00;100154.56;5145380;28;20051;-80
2023/03/11 03:32:07;;;;;;;4.57;1.05;;;3.00;99.90;;;2.59;100.00;100164.78;5137399;28;20591;-81
2023/03/11 03:34:40;;;;;;;3.85;1.30;;;3.00;99.90;;;2.59;100.00;100159.66;5137110;28;20065;-81
2023/03/11 03:37:12;;;;;;;2.65;0.80;;;3.00;99.90;;;2.59;100.00;100162.22;5138015;28;20505;-80
2023/03/11 03:39:44;;;;;;;5.63;1.00;;;3.00;99.90;;;2.55;100.00;100168.91;5138092;28;20050;-82
2023/03/11 03:42:17;;;;;;;3.03;1.10;;;2.90;99.90;;;2.56;100.00;100172.34;5129618;28;20410;-81
2023/03/11 03:44:51;;;;;;;5.97;1.25;;;2.90;99.90;;;2.51;100.00;100173.78;5136963;28;20054;-80
2023/03/11 03:47:24;;;;;;;6.38;1.13;;;2.90;99.90;;;2.47;100.00;100176.97;5137048;28;20101;-79
2023/03/11 03:49:56;;;;;;;2.63;0.93;;;2.90;99.90;;;2.42;100.00;100177.59;5145568;28;20047;-81
2023/03/11 03:52:28;;;;;;;5.53;1.10;;;2.80;99.90;;;2.39;100.00;100181.66;5136404;28;20050;-82
2023/03/11 03:55:01;;;;;;;2.38;0.75;;;2.80;99.90;;;2.38;100.00;100179.91;5149202;28;20089;-81
2023/03/11 03:57:33;;;;;;;4.97;1.00;;;2.80;99.90;;;2.37;100.00;100180.72;5133197;28;20051;-81
2023/03/11 04:00:09;;;;;;;3.20;0.95;;;2.80;99.90;;;2.33;100.00;100195.06;5141700;28;20512;-80
2023/03/11 04:02:45;;;;;;;4.07;1.05;;;2.70;99.90;;;2.29;100.00;100194.81;5149111;28;20103;-80
2023/03/11 04:05:27;;;;;;;3.50;0.60;;;2.70;99.90;;;2.28;100.00;100193.94;5145142;28;20049;-81
2023/03/11 04:08:01;;;;;;;1.75;0.75;;;2.70;99.90;;;2.27;100.00;100197.28;5145750;28;20557;-80
2023/03/11 04:10:33;;;;;;;1.88;0.80;;;2.60;99.90;;;2.25;100.00;100204.03;5141579;28;20512;-80
2023/03/11 04:13:05;;;;;;;2.90;0.77;;;2.60;99.90;;;2.21;100.00;100208.88;5142359;28;20064;-81
2023/03/11 04:15:39;;;;;;;0.68;0.63;;;2.60;99.90;;;2.19;100.00;100206.25;5133327;28;20046;-82
2023/03/11 04:18:12;;;;;;;1.83;0.77;;;2.60;99.90;;;2.17;100.00;100220.69;5154603;28;20045;-81
2023/03/11 04:20:45;;;;;;;7.25;1.10;;;2.60;99.90;;;2.14;100.00;100220.50;5132611;28;20049;-82
2023/03/11 04:23:20;;;;;;;2.78;0.77;;;2.50;99.90;;;2.11;100.00;100228.06;5137999;28;20062;-81
2023/03/11 04:25:52;;;;;;;3.28;0.85;;;2.50;99.90;;;2.09;100.00;100219.38;5138157;28;20046;-81
2023/03/11 04:28:24;;;;;;;3.42;1.08;;;2.50;99.90;;;2.07;100.00;100228.66;5134887;28;20509;-82
2023/03/11 04:30:58;;;;;;;5.18;1.00;;;2.50;99.90;;;2.07;100.00;100232.09;5146399;28;20126;-81
2023/03/11 04:33:31;;;;;;;1.67;0.60;;;2.40;99.90;;;2.05;100.00;100230.25;5146107;28;20047;-81
2023/03/11 04:36:06;;;;;;;3.88;0.93;;;2.40;99.90;;;2.02;100.00;100236.13;5141885;28;20042;-82
2023/03/11 04:38:40;;;;;;;6.55;0.98;;;2.40;99.90;;;1.97;100.00;100244.34;5138073;28;20053;-80
2023/03/11 04:41:14;;;;;;;2.88;0.88;;;2.40;99.90;;;1.95;100.00;100233.06;5130824;28;20050;-81
2023/03/11 04:43:48;;;;;;;2.00;1.15;;;2.40;99.90;;;1.93;100.00;100230.41;5146008;28;20065;-83
2023/03/11 04:46:21;;;;;;;3.58;1.10;;;2.30;99.90;;;1.96;100.00;100229.72;5130917;28;20469;-82
2023/03/11 04:48:54;;;;;;;2.35;0.70;;;2.30;99.90;;;1.95;100.00;100235.63;5131152;28;20824;-84
2023/03/11 04:51:26;;;;;;;3.63;0.80;;;2.30;99.90;;;1.94;100.00;100242.47;5138479;28;20093;-83
2023/03/11 04:53:59;;;;;;;2.72;0.90;;;2.40;99.90;;;1.92;100.00;100233.78;5143805;28;20408;-80
2023/03/11 04:56:33;;;;;;;1.63;0.70;;;2.30;99.90;;;1.91;100.00;100242.28;5136842;28;20070;-82
2023/03/11 04:59:06;;;;;;;3.60;0.85;;;2.30;99.90;;;1.84;100.00;100241.03;5139878;28;20043;-82
2023/03/11 05:01:41;;;;;;;2.03;0.80;;;2.30;99.90;;;1.85;100.00;100241.91;5135428;28;20055;-83
2023/03/11 05:04:14;;;;;;;3.70;0.75;;;2.20;99.90;;;1.85;100.00;100247.06;5131389;28;20043;-82
2023/03/11 05:06:49;;;;;;;4.03;0.95;;;2.20;99.90;;;1.85;100.00;100240.22;5140128;28;20047;-82
2023/03/11 05:09:21;;;;;;;2.90;0.60;;;2.20;99.90;;;1.85;100.00;100245.38;5140135;28;20157;-81
2023/03/11 05:11:54;;;;;;;2.63;0.70;;;2.20;99.90;;;1.85;100.00;100247.94;5148500;28;20137;-81
2023/03/11 05:14:27;;;;;;;1.25;0.70;;;2.20;99.90;;;1.84;100.00;100248.75;5135992;28;20042;-82
2023/03/11 05:17:02;;;;;;;2.20;1.08;;;2.20;99.90;;;1.84;100.00;100251.31;5139493;28;20049;-82
2023/03/11 05:19:35;;;;;;;1.02;0.63;;;2.20;99.90;;;1.84;100.00;100256.44;5135187;28;20047;-82
2023/03/11 05:22:16;;;;;;;2.03;0.70;;;2.20;99.90;;;1.83;100.00;100258.94;5132283;28;20114;-82
2023/03/11 05:24:50;;;;;;;1.42;0.60;;;2.20;99.90;;;1.81;100.00;100263.97;5260374;23;20042;-70
2023/03/11 05:27:23;;;;;;;2.63;1.15;;;2.20;99.90;;;1.80;100.00;100269.00;5135245;28;20052;-69
2023/03/11 05:29:59;;;;;;;2.40;1.00;;;2.10;99.90;;;1.78;100.00;100274.06;5126394;28;20139;-68
2023/03/11 05:32:35;;;;;;;1.35;0.70;;;2.10;99.90;;;1.77;100.00;100271.41;5138930;28;20142;-69
2023/03/11 05:35:08;;;;;;;2.15;0.82;;;2.10;99.90;;;1.77;100.00;100280.00;5129331;28;20055;-68
2023/03/11 05:37:41;;;;;;;2.33;0.60;;;2.10;99.90;;;1.76;100.00;100283.38;5122981;29;20035;-68
2023/03/11 05:40:14;;;;;;;1.90;0.90;;;2.10;99.90;;;1.76;100.00;100285.94;5125002;29;20059;-68
2023/03/11 05:42:46;;;;;;;2.78;0.95;;;2.10;99.90;;;1.77;100.00;100290.28;5129645;28;20142;-69
2023/03/11 05:45:20;;;;;;;1.52;0.95;;;2.10;99.90;;;1.78;100.00;100292.06;5123017;29;20546;-70
2023/03/11 05:47:56;;;;;;;1.02;0.50;;;2.10;99.90;;;1.80;100.00;100290.47;5117069;29;20049;-69
2023/03/11 05:50:28;;;;;;;1.02;0.70;;;2.10;99.90;;;1.80;100.00;100295.59;5141065;28;20051;-68
2023/03/11 05:53:01;;;;;;;1.58;0.70;;;2.20;99.90;;;1.82;100.00;100288.84;5124938;29;20044;-70
2023/03/11 05:55:35;;;;;;;2.78;0.60;;;2.20;99.90;;;1.84;100.00;100292.44;5140625;28;20058;-69
2023/03/11 05:58:08;;;;;;;2.60;0.75;;;2.20;99.90;;;1.87;100.00;100297.75;5137122;28;20071;-69
2023/03/11 06:00:40;;;;;;;3.00;0.90;;;2.20;99.90;;;1.87;100.00;100297.75;5122247;29;20090;-69
2023/03/11 06:03:14;;;;;;;2.53;0.88;;;2.20;99.90;;;1.87;100.00;100302.88;5126340;28;20067;-69
2023/03/11 06:05:48;;;;;;;2.40;0.75;;;2.20;99.90;;;1.90;100.00;100305.66;5140769;28;20047;-68
2023/03/11 06:08:20;;;;;;;3.15;0.80;;;2.20;99.90;;;1.92;100.00;100310.00;5125148;29;20048;-68
2023/03/11 06:10:53;;;;;;;2.33;0.63;;;2.30;99.90;;;1.91;100.00;100306.56;5126250;28;20087;-69
2023/03/11 06:13:26;;;;;;;2.15;0.68;;;2.30;99.90;;;1.92;100.00;100305.75;5137176;28;20058;-69
2023/03/11 06:15:59;;;;;;;1.90;0.80;;;2.30;99.90;;;1.96;100.00;100301.69;5116592;29;20134;-68
2023/03/11 06:18:33;;;;;;;1.25;0.80;;;2.30;99.90;;;1.97;100.00;100303.47;5140901;28;20110;-69
2023/03/11 06:21:07;;;;;;;2.15;0.90;;;2.30;99.90;;;2.01;100.00;100306.28;5140473;28;20073;-68
2023/03/11 06:23:40;;;;;;;1.80;0.77;;;2.30;99.90;;;2.06;100.00;100304.00;5137475;28;20067;-69
2023/03/11 06:26:16;;;;;;;2.10;0.70;;;2.40;99.90;;;2.13;100.00;100301.00;5123476;28;20522;-69
2023/03/11 06:28:52;;;;;;;2.72;0.90;;;2.40;99.90;;;2.30;100.00;100320.94;5115918;28;20380;-69
2023/03/11 06:31:27;;;;;;;2.55;0.80;;;2.60;99.90;;;2.56;100.00;100321.59;5130224;28;20134;-68
2023/03/11 06:34:06;;;;;;;3.17;1.08;;;2.70;99.90;;;2.72;100.00;100342.25;5139910;28;20079;-69
2023/03/11 06:36:38;;;;;;;2.17;1.00;;;2.90;99.90;;;3.10;100.00;100338.44;5125267;28;20050;-68
2023/03/11 06:39:14;;;;;;;2.90;0.93;;;3.20;99.90;;;3.49;100.00;100338.13;5120198;28;20206;-70
2023/03/11 06:41:46;;;;;;;2.22;0.95;;;3.50;99.90;;;4.01;100.00;100334.91;5120904;28;20052;-69
2023/03/11 06:44:19;;;;;;;3.75;1.20;;;3.90;99.90;;;4.39;99.42;100336.94;5139659;28;20044;-69
2023/03/11 06:46:52;;;;;;;3.80;0.70;;;4.20;99.90;;;4.71;97.57;100340.28;5140221;28;20043;-69
2023/03/11 06:49:25;;;;;;;2.13;0.90;;;4.50;99.90;;;5.04;95.76;100336.81;5123916;29;20051;-69
2023/03/11 06:51:58;;;;;;;2.75;0.98;;;4.80;99.90;;;5.37;94.30;100339.28;5138636;28;20051;-69
2023/03/11 06:54:30;;;;;;;3.75;1.20;;;5.10;99.90;;;5.89;92.52;100346.91;5133169;28;20083;-69
2023/03/11 06:57:06;;;;;;;7.00;1.30;;;5.50;99.90;;;6.93;90.06;100354.13;5122206;29;20062;-68
2023/03/11 06:59:38;;;;;;;3.90;1.27;;;6.20;99.90;;;7.87;85.56;100354.47;5135450;28;20133;-68
2023/03/11 07:02:14;;;;;;;3.47;1.30;;;7.00;99.90;;;8.02;82.20;100359.38;5123395;29;20067;-69
2023/03/11 07:04:50;;;;;;;3.97;1.35;;;7.40;99.90;;;7.40;80.98;100361.28;5135349;28;20509;-59
2023/03/11 07:07:24;;;;;;;2.17;1.08;;;7.20;99.40;;;6.64;81.76;100378.78;5138090;28;20050;-60
2023/03/11 07:09:57;;;;;;;3.08;1.25;;;6.70;99.30;;;5.94;83.13;100384.25;5135976;28;20127;-59
2023/03/11 07:12:29;;;;;;;2.22;1.00;;;6.20;99.50;;;5.42;84.60;100389.50;5134352;28;20051;-59
2023/03/11 07:15:01;;;;;;;3.42;1.25;;;5.70;99.90;;;5.03;86.10;100394.47;5136844;28;20098;-59
2023/03/11 07:17:35;;;;;;;2.15;0.80;;;5.30;99.90;;;4.75;87.36;100397.31;5121823;28;20058;-59
2023/03/11 07:20:12;;;;;;;3.05;1.10;;;5.00;99.90;;;4.53;88.33;100405.66;5121257;29;20039;-60
2023/03/11 07:22:44;;;;;;;2.50;1.02;;;4.80;99.90;;;4.39;89.00;100403.16;5124046;28;20144;-59
2023/03/11 07:25:16;;;;;;;4.75;1.38;;;4.60;99.90;;;4.29;89.76;100412.09;5123815;29;20039;-59
2023/03/11 07:27:49;;;;;;;2.60;1.10;;;4.50;99.90;;;4.18;90.40;100419.28;5123831;28;20125;-61
2023/03/11 07:30:21;;;;;;;6.93;1.92;;;4.40;99.90;;;4.23;90.91;100429.81;5123724;28;20094;-59
2023/03/11 07:32:53;;;;;;;1.60;1.20;;;4.40;99.90;;;4.29;91.40;100430.16;5123245;29;20043;-60
2023/03/11 07:35:26;;;;;;;7.07;1.20;;;4.40;99.90;;;4.66;91.92;100432.13;5123889;29;20043;-59
2023/03/11 07:37:58;;;;;;;3.25;1.00;;;4.60;99.90;;;5.74;91.98;100432.44;5136968;28;20051;-59
2023/03/11 07:40:31;;;;;;;4.55;1.25;;;5.20;99.90;;;7.56;86.54;100444.09;5124055;28;20051;-60
2023/03/11 07:43:03;;;;;;;5.05;1.30;;;6.50;99.90;;;8.83;80.23;100438.63;5123518;28;20138;-61
2023/03/11 07:45:36;;;;;;;3.05;1.58;;;7.60;99.90;;;9.86;75.44;100444.75;5123575;28;20122;-60
2023/03/11 07:48:08;;;;;;;3.92;1.20;;;8.50;98.00;;;10.50;72.06;100451.97;5137760;28;20047;-61
2023/03/11 07:50:41;;;;;;;3.50;1.10;;;9.20;95.10;;;11.30;68.60;100455.06;5134071;28;20052;-59
2023/03/11 07:53:13;;;;;;;4.43;1.10;;;9.90;92.30;;;12.04;66.79;100453.47;5123102;28;20126;-60
2023/03/11 07:55:45;;;;;;;4.10;1.30;;;10.60;90.20;;;12.67;64.76;100458.38;5122443;29;20039;-60
2023/03/11 07:58:17;;;;;;;3.53;1.15;;;11.20;87.00;;;13.48;62.73;100472.16;5123333;28;20501;-61
2023/03/11 08:00:50;;;;;;;4.93;1.20;;;11.80;82.90;;;14.35;60.00;100469.22;5123026;28;20083;-60
2023/03/11 08:03:24;;;;;;;4.30;1.08;;;12.50;78.90;;;14.95;58.10;100479.66;5123349;29;20043;-59
2023/03/11 08:05:57;;;;;;;2.88;1.17;;;13.10;75.00;;;15.08;55.74;100476.31;5121845;29;20054;-61
2023/03/11 08:08:29;;;;;;;3.17;1.20;;;13.20;71.00;;;15.10;54.96;100485.94;5123393;28;20043;-60
2023/03/11 08:11:04;;;;;;;4.20;1.15;;;13.30;69.40;;;15.62;54.78;100486.53;5123213;28;20408;-59
2023/03/11 08:13:36;;;;;;;3.70;1.50;;;13.60;69.30;;;16.12;53.48;100478.19;5123439;29;20407;-60
2023/03/11 08:16:10;;;;;;;4.32;1.00;;;14.00;67.70;;;16.73;52.69;100482.97;5122838;29;20075;-60
2023/03/11 08:18:43;;;;;;;3.95;1.70;;;14.50;67.20;;;17.07;51.28;100484.84;5113841;28;20051;-62
2023/03/11 08:21:20;;;;;;;4.93;1.30;;;14.90;65.30;;;17.20;50.82;100487.53;5115483;29;20063;-61
2023/03/11 08:23:57;;;;;;;3.33;1.52;;;15.00;64.10;;;17.54;50.25;100486.75;5121510;28;20051;-61
2023/03/11 08:26:30;;;;;;;4.85;1.27;;;15.30;63.40;;;17.77;48.70;100478.88;5134265;28;20055;-59
2023/03/11 08:29:02;;;;;;;4.22;0.98;;;15.60;61.40;;;17.77;48.92;100493.81;5121402;29;20047;-59
2023/03/11 08:31:35;;;;;;;2.47;0.98;;;15.70;61.50;;;17.76;48.13;100495.59;5121311;29;20051;-61
2023/03/11 08:34:10;;;;;;;5.93;1.10;;;15.80;60.20;;;17.79;48.01;100489.41;5122187;29;20059;-61
2023/03/11 08:36:44;;;;;;;3.90;1.38;;;15.80;59.80;;;17.84;47.20;100488.53;5122795;29;20046;-60
2023/03/11 08:39:16;;;;;;;4.22;1.30;;;15.90;58.80;;;17.44;47.21;100492.00;5121875;29;20050;-61
2023/03/11 08:41:48;;;;;;;3.72;1.23;;;15.70;58.50;;;17.14;47.34;100487.50;5120494;28;20051;-60
2023/03/11 08:44:20;;;;;;;3.08;0.98;;;15.40;58.30;;;17.02;48.63;100489.25;5122352;28;20045;-57
2023/03/11 08:46:53;;;;;;;4.57;1.13;;;15.40;59.60;;;16.97;48.63;100492.72;5122814;29;20040;-57
2023/03/11 08:49:25;;;;;;;3.53;0.90;;;15.30;59.50;;;16.79;48.78;100494.41;5123003;28;20105;-58
2023/03/11 08:51:58;;;;;;;4.43;1.45;;;15.20;59.60;;;16.33;49.10;100498.50;5122407;28;20047;-57
2023/03/11 08:54:31;;;;;;;3.05;1.20;;;14.90;59.50;;;15.75;49.47;100492.78;5122059;28;20046;-57
2023/03/11 08:57:03;;;;;;;3.50;0.93;;;14.50;59.40;;;14.67;51.29;100497.69;5121947;29;20051;-58
2023/03/11 08:59:37;;;;;;;5.85;1.42;;;13.80;60.70;;;13.36;53.28;100492.88;5122353;28;20125;-57
2023/03/11 09:02:10;;;;;;;3.80;1.15;;;12.80;61.60;;;12.41;55.55;100496.13;5121862;28;20039;-58
2023/03/11 09:04:42;;;;;;;4.43;1.20;;;12.00;63.60;;;11.83;56.85;100500.84;5125553;28;20051;-58
2023/03/11 09:07:16;;;;;;;2.28;1.00;;;11.50;65.10;;;11.48;67.17;100502.53;5126051;29;20046;-60
2023/03/11 09:09:48;;;;;;;3.58;1.10;;;11.10;78.70;;;11.57;60.66;100505.38;5140257;28;20134;-60
2023/03/11 09:12:21;;;;;;;3.58;0.98;;;11.20;70.30;;;11.26;60.19;100501.06;5125800;29;20035;-59
2023/03/11 09:14:55;;;;;;;3.15;0.95;;;11.00;69.30;;;11.12;61.43;100500.69;5125018;28;20047;-59
2023/03/11 09:17:27;;;;;;;3.15;1.08;;;10.80;70.70;;;10.81;59.76;100496.31;5124453;28;20377;-58
2023/03/11 09:19:59;;;;;;;3.83;1.20;;;10.60;68.70;;;10.50;58.96;100497.16;5125458;28;20496;-58
2023/03/11 09:22:33;;;;;;;3.97;0.90;;;10.40;67.50;;;10.58;60.11;100500.88;5140087;28;20082;-60
2023/03/11 09:25:07;;;;;;;4.43;1.00;;;10.40;69.40;;;10.78;60.26;100490.13;5125605;28;20043;-60
2023/03/11 09:27:40;;;;;;;2.95;1.10;;;10.50;69.50;;;10.97;60.67;100484.63;5124367;28;20070;-61
2023/03/11 09:30:13;;;;;;;1.52;0.88;;;10.70;69.90;;;10.94;59.74;100481.03;5125867;28;20532;-61
2023/03/11 09:32:46;;;;;;;3.40;1.20;;;10.70;68.90;;;10.62;59.93;100480.97;5124786;29;20047;-62
2023/03/11 09:35:18;;;;;;;3.78;1.10;;;10.50;68.60;;;10.55;60.95;100492.06;5121266;29;20492;-60
2023/03/11 09:37:51;;;;;;;2.30;0.90;;;10.40;70.10;;;10.26;57.90;100479.03;5125797;29;20071;-60
2023/03/11 09:40:28;;;;;;;2.38;0.90;;;10.20;66.70;;;9.82;56.58;100484.50;5125574;28;20039;-59
2023/03/11 09:43:14;;;;;;;2.20;0.70;;;9.90;65.00;;;9.35;57.46;100492.47;5125937;28;20047;-60
2023/03/11 09:45:55;;;;;;;3.80;0.70;;;9.40;65.70;;;9.15;57.77;100486.59;5122034;29;20457;-60
2023/03/11 09:48:35;;;;;;;2.42;0.75;;;9.10;66.00;;;9.34;61.10;100490.72;5125623;29;20042;-60
2023/03/11 09:51:15;;;;;;;2.70;0.88;;;9.20;70.10;;;9.90;61.90;100499.53;5124387;29;20471;-59
2023/03/11 09:53:54;;;;;;;2.40;0.80;;;9.60;72.90;;;10.24;58.13;100503.28;5125899;29;20101;-63
2023/03/11 09:56:27;;;;;;;2.22;0.68;;;9.90;67.90;;;10.35;56.62;100501.88;5118889;29;20102;-57
2023/03/11 09:59:04;;;;;;;1.95;0.73;;;10.10;65.80;;;10.22;54.38;100503.19;5125093;28;20114;-58
2023/03/11 10:01:42;;;;;;;3.33;0.57;;;10.10;62.90;;;9.84;54.40;100512.34;5125597;28;20035;-58
2023/03/11 10:04:19;;;;;;;2.85;0.70;;;9.80;62.80;;;9.41;54.56;100518.72;5125139;28;20035;-58
2023/03/11 10:06:52;;;;;;;1.67;0.52;;;9.50;62.50;;;9.11;55.29;100512.41;5125284;28;20043;-59
2023/03/11 10:09:37;;;;;;;1.50;0.90;;;9.20;63.30;;;8.85;55.93;100522.75;5125435;28;20047;-58
2023/03/11 10:12:27;;;;;;;2.08;0.70;;;9.00;64.00;;;9.01;57.53;100519.00;5125254;29;20051;-57
2023/03/11 10:15:16;;;;;;;4.15;1.00;;;8.90;65.80;;;9.49;58.56;100527.66;5122462;28;20043;-59
2023/03/11 10:18:02;;;;;;;1.83;0.80;;;9.30;68.00;;;9.84;57.46;100530.56;5125424;28;20047;-58
2023/03/11 10:20:47;;;;;;;1.60;0.80;;;9.50;66.80;;;9.87;56.02;100533.28;5114715;29;20504;-58
2023/03/11 10:23:27;;;;;;;1.55;0.90;;;9.60;65.30;;;9.71;56.76;100536.19;5124494;28;20043;-60
2023/03/11 10:26:12;;;;;;;2.17;0.70;;;9.60;65.70;;;9.39;57.42;100535.06;5124271;28;20134;-57
2023/03/11 10:28:51;;;;;;;1.38;0.80;;;9.40;65.80;;;9.09;57.49;100540.09;5120893;28;20035;-58
2023/03/11 10:31:29;;;;;;;3.03;1.10;;;9.20;65.90;;;8.84;58.46;100538.28;5116103;29;20074;-57
2023/03/11 10:34:05;;;;;;;1.85;0.63;;;8.90;66.60;;;8.51;58.26;100535.28;5122815;28;20238;-58
2023/03/11 10:36:46;;;;;;;2.13;0.65;;;8.70;66.10;;;8.24;58.53;100538.53;5124697;28;20064;-60
2023/03/11 10:39:19;;;;;;;2.30;0.80;;;8.40;66.80;;;7.98;58.26;100549.56;5124217;28;20043;-58
2023/03/11 10:41:56;;;;;;;3.83;0.70;;;8.20;66.00;;;7.81;58.19;100544.56;5124006;28;20250;-59
2023/03/11 10:44:33;;;;;;;2.00;0.50;;;8.00;66.50;;;7.72;58.92;100557.16;5124294;28;20047;-58
2023/03/11 10:47:10;;;;;;;1.67;0.65;;;7.90;66.90;;;7.62;58.72;100555.84;5124673;28;20398;-59
2023/03/11 10:49:42;;;;;;;4.13;0.73;;;7.80;66.90;;;7.53;58.74;100559.78;5124879;28;20133;-58